sensor_id;sensor_type;location;lat;lon;timestamp;P1;durP1;ratioP1;P2;durP2;ratioP2
13832;SDS011;6987;19.472;-99.276;2022-07-15T00:01:39;1.50;;;1.40;;
13832;SDS011;6987;19.472;-99.276;2022-07-15T00:04:08;2.67;;;1.77;;
13832;SDS011;6987;19.472;-99.276;2022-07-15T00:06:39;1.35;;;1.35;;
13832;SDS011;6987;19.472;-99.276;2022-07-15T00:09:08;2.85;;;2.15;;
13832;SDS011;6987;19.472;-99.276;2022-07-15T00:11:37;4.57;;;1.80;;
13832;SDS011;6987;19.472;-99.276;2022-07-15T00:14:06;3.75;;;2.50;;
13832;SDS011;6987;19.472;-99.276;2022-07-15T00:16:36;1.95;;;1.85;;
13832;SDS011;6987;19.472;-99.276;2022-07-15T00:19:04;4.65;;;2.67;;
13832;SDS011;6987;19.472;-99.276;2022-07-15T00:21:33;2.42;;;2.22;;
13832;SDS011;6987;19.472;-99.276;2022-07-15T00:24:04;2.42;;;2.30;;
13832;SDS011;6987;19.472;-99.276;2022-07-15T00:26:33;3.10;;;2.47;;
13832;SDS011;6987;19.472;-99.276;2022-07-15T00:29:02;3.03;;;2.72;;
13832;SDS011;6987;19.472;-99.276;2022-07-15T00:31:31;2.50;;;2.28;;
13832;SDS011;6987;19.472;-99.276;2022-07-15T00:34:00;2.63;;;2.40;;
13832;SDS011;6987;19.472;-99.276;2022-07-15T00:36:29;13.82;;;2.67;;
13832;SDS011;6987;19.472;-99.276;2022-07-15T00:38:58;5.78;;;3.28;;
13832;SDS011;6987;19.472;-99.276;2022-07-15T00:41:34;3.97;;;3.15;;
13832;SDS011;6987;19.472;-99.276;2022-07-15T00:44:03;4.80;;;3.15;;
13832;SDS011;6987;19.472;-99.276;2022-07-15T00:46:32;3.28;;;2.97;;
13832;SDS011;6987;19.472;-99.276;2022-07-15T00:49:02;5.28;;;3.25;;
13832;SDS011;6987;19.472;-99.276;2022-07-15T00:51:32;5.80;;;2.83;;
13832;SDS011;6987;19.472;-99.276;2022-07-15T00:54:02;3.13;;;2.60;;
13832;SDS011;6987;19.472;-99.276;2022-07-15T00:56:36;2.80;;;2.42;;
13832;SDS011;6987;19.472;-99.276;2022-07-15T00:59:05;2.92;;;2.63;;
13832;SDS011;6987;19.472;-99.276;2022-07-15T01:01:34;4.10;;;2.55;;
13832;SDS011;6987;19.472;-99.276;2022-07-15T01:04:04;2.28;;;2.17;;
13832;SDS011;6987;19.472;-99.276;2022-07-15T01:06:33;6.32;;;2.72;;
13832;SDS011;6987;19.472;-99.276;2022-07-15T01:09:02;5.32;;;2.67;;
13832;SDS011;6987;19.472;-99.276;2022-07-15T01:11:31;3.50;;;2.30;;
13832;SDS011;6987;19.472;-99.276;2022-07-15T01:14:02;3.05;;;2.45;;
13832;SDS011;6987;19.472;-99.276;2022-07-15T01:16:31;2.30;;;2.20;;
13832;SDS011;6987;19.472;-99.276;2022-07-15T01:19:00;3.10;;;2.10;;
13832;SDS011;6987;19.472;-99.276;2022-07-15T01:21:31;3.80;;;2.30;;
13832;SDS011;6987;19.472;-99.276;2022-07-15T01:24:01;2.45;;;2.35;;
13832;SDS011;6987;19.472;-99.276;2022-07-15T01:26:30;4.13;;;2.38;;
13832;SDS011;6987;19.472;-99.276;2022-07-15T01:28:58;2.13;;;1.92;;
13832;SDS011;6987;19.472;-99.276;2022-07-15T01:31:27;2.83;;;1.90;;
13832;SDS011;6987;19.472;-99.276;2022-07-15T01:33:56;4.57;;;2.33;;
13832;SDS011;6987;19.472;-99.276;2022-07-15T01:36:25;3.35;;;1.90;;
13832;SDS011;6987;19.472;-99.276;2022-07-15T01:38:56;2.30;;;2.20;;
13832;SDS011;6987;19.472;-99.276;2022-07-15T01:41:25;2.97;;;1.80;;
13832;SDS011;6987;19.472;-99.276;2022-07-15T01:43:54;1.77;;;1.67;;
13832;SDS011;6987;19.472;-99.276;2022-07-15T01:46:22;2.08;;;1.88;;
13832;SDS011;6987;19.472;-99.276;2022-07-15T01:48:51;1.80;;;1.70;;
13832;SDS011;6987;19.472;-99.276;2022-07-15T01:51:37;2.22;;;2.03;;
13832;SDS011;6987;19.472;-99.276;2022-07-15T01:54:07;2.28;;;1.85;;
13832;SDS011;6987;19.472;-99.276;2022-07-15T01:56:36;2.53;;;2.33;;
13832;SDS011;6987;19.472;-99.276;2022-07-15T01:59:05;2.25;;;2.05;;
13832;SDS011;6987;19.472;-99.276;2022-07-15T02:01:35;3.28;;;3.00;;
13832;SDS011;6987;19.472;-99.276;2022-07-15T02:04:04;5.65;;;2.88;;
13832;SDS011;6987;19.472;-99.276;2022-07-15T02:06:33;3.13;;;2.78;;
13832;SDS011;6987;19.472;-99.276;2022-07-15T02:09:02;7.15;;;3.05;;
13832;SDS011;6987;19.472;-99.276;2022-07-15T02:11:33;5.35;;;2.80;;
13832;SDS011;6987;19.472;-99.276;2022-07-15T02:14:02;2.70;;;2.50;;
13832;SDS011;6987;19.472;-99.276;2022-07-15T02:16:31;3.50;;;2.13;;
13832;SDS011;6987;19.472;-99.276;2022-07-15T02:19:01;2.33;;;2.13;;
13832;SDS011;6987;19.472;-99.276;2022-07-15T02:21:30;4.10;;;2.80;;
13832;SDS011;6987;19.472;-99.276;2022-07-15T02:23:58;3.10;;;2.90;;
13832;SDS011;6987;19.472;-99.276;2022-07-15T02:26:27;2.45;;;2.28;;
13832;SDS011;6987;19.472;-99.276;2022-07-15T02:28:58;3.30;;;3.00;;
13832;SDS011;6987;19.472;-99.276;2022-07-15T02:31:28;3.10;;;2.53;;
13832;SDS011;6987;19.472;-99.276;2022-07-15T02:33:57;2.60;;;2.40;;
13832;SDS011;6987;19.472;-99.276;2022-07-15T02:36:26;3.30;;;2.50;;
13832;SDS011;6987;19.472;-99.276;2022-07-15T02:38:55;3.90;;;2.40;;
13832;SDS011;6987;19.472;-99.276;2022-07-15T02:41:24;3.53;;;2.22;;
13832;SDS011;6987;19.472;-99.276;2022-07-15T02:43:53;3.42;;;2.70;;
13832;SDS011;6987;19.472;-99.276;2022-07-15T02:46:25;4.18;;;2.20;;
13832;SDS011;6987;19.472;-99.276;2022-07-15T02:48:53;5.20;;;2.42;;
13832;SDS011;6987;19.472;-99.276;2022-07-15T02:51:22;2.58;;;2.42;;
13832;SDS011;6987;19.472;-99.276;2022-07-15T02:53:52;3.35;;;2.70;;
13832;SDS011;6987;19.472;-99.276;2022-07-15T02:56:20;4.85;;;2.95;;
13832;SDS011;6987;19.472;-99.276;2022-07-15T02:58:49;2.88;;;2.67;;
13832;SDS011;6987;19.472;-99.276;2022-07-15T03:01:18;4.22;;;2.83;;
13832;SDS011;6987;19.472;-99.276;2022-07-15T03:03:49;3.78;;;2.85;;
13832;SDS011;6987;19.472;-99.276;2022-07-15T03:06:19;3.63;;;3.20;;
13832;SDS011;6987;19.472;-99.276;2022-07-15T03:08:49;3.00;;;2.80;;
13832;SDS011;6987;19.472;-99.276;2022-07-15T03:11:18;3.30;;;2.53;;
13832;SDS011;6987;19.472;-99.276;2022-07-15T03:13:47;2.83;;;2.63;;
13832;SDS011;6987;19.472;-99.276;2022-07-15T03:16:16;2.63;;;2.42;;
13832;SDS011;6987;19.472;-99.276;2022-07-15T03:18:45;3.15;;;2.88;;
13832;SDS011;6987;19.472;-99.276;2022-07-15T03:21:16;2.92;;;2.60;;
13832;SDS011;6987;19.472;-99.276;2022-07-15T03:23:45;2.83;;;2.63;;
13832;SDS011;6987;19.472;-99.276;2022-07-15T03:26:14;3.10;;;2.90;;
13832;SDS011;6987;19.472;-99.276;2022-07-15T03:28:42;2.83;;;2.63;;
13832;SDS011;6987;19.472;-99.276;2022-07-15T03:31:11;3.63;;;2.60;;
13832;SDS011;6987;19.472;-99.276;2022-07-15T03:33:40;3.38;;;2.60;;
13832;SDS011;6987;19.472;-99.276;2022-07-15T03:36:09;4.32;;;2.75;;
13832;SDS011;6987;19.472;-99.276;2022-07-15T03:38:40;3.58;;;3.28;;
13832;SDS011;6987;19.472;-99.276;2022-07-15T03:41:09;3.15;;;2.97;;
13832;SDS011;6987;19.472;-99.276;2022-07-15T03:43:38;3.45;;;3.15;;
13832;SDS011;6987;19.472;-99.276;2022-07-15T03:46:07;4.10;;;2.95;;
13832;SDS011;6987;19.472;-99.276;2022-07-15T03:48:36;2.70;;;2.47;;
13832;SDS011;6987;19.472;-99.276;2022-07-15T03:51:05;3.67;;;3.15;;
13832;SDS011;6987;19.472;-99.276;2022-07-15T03:53:34;3.30;;;3.00;;
13832;SDS011;6987;19.472;-99.276;2022-07-15T03:56:05;2.78;;;2.58;;
13832;SDS011;6987;19.472;-99.276;2022-07-15T03:58:34;3.03;;;2.83;;
13832;SDS011;6987;19.472;-99.276;2022-07-15T04:01:03;3.25;;;2.90;;
13832;SDS011;6987;19.472;-99.276;2022-07-15T04:03:32;3.78;;;2.95;;
13832;SDS011;6987;19.472;-99.276;2022-07-15T04:06:01;3.65;;;2.65;;
13832;SDS011;6987;19.472;-99.276;2022-07-15T04:08:30;3.17;;;2.95;;
13832;SDS011;6987;19.472;-99.276;2022-07-15T04:10:59;5.07;;;3.13;;
13832;SDS011;6987;19.472;-99.276;2022-07-15T04:13:30;4.05;;;3.22;;
13832;SDS011;6987;19.472;-99.276;2022-07-15T04:15:59;3.47;;;3.20;;
13832;SDS011;6987;19.472;-99.276;2022-07-15T04:18:29;3.33;;;3.03;;
13832;SDS011;6987;19.472;-99.276;2022-07-15T04:20:58;3.17;;;2.88;;
13832;SDS011;6987;19.472;-99.276;2022-07-15T04:23:27;4.78;;;4.38;;
13832;SDS011;6987;19.472;-99.276;2022-07-15T04:25:57;4.78;;;4.38;;
13832;SDS011;6987;19.472;-99.276;2022-07-15T04:28:26;8.07;;;6.13;;
13832;SDS011;6987;19.472;-99.276;2022-07-15T04:30:58;17.77;;;13.02;;
13832;SDS011;6987;19.472;-99.276;2022-07-15T04:33:27;17.08;;;12.50;;
13832;SDS011;6987;19.472;-99.276;2022-07-15T04:35:56;19.95;;;12.25;;
13832;SDS011;6987;19.472;-99.276;2022-07-15T04:38:25;13.45;;;11.38;;
13832;SDS011;6987;19.472;-99.276;2022-07-15T04:40:55;11.77;;;8.70;;
13832;SDS011;6987;19.472;-99.276;2022-07-15T04:43:24;12.65;;;10.15;;
13832;SDS011;6987;19.472;-99.276;2022-07-15T04:45:53;12.85;;;8.77;;
13832;SDS011;6987;19.472;-99.276;2022-07-15T04:48:24;8.15;;;7.05;;
13832;SDS011;6987;19.472;-99.276;2022-07-15T04:51:10;7.82;;;6.35;;
13832;SDS011;6987;19.472;-99.276;2022-07-15T04:53:40;7.47;;;6.78;;
13832;SDS011;6987;19.472;-99.276;2022-07-15T04:56:09;6.10;;;5.60;;
13832;SDS011;6987;19.472;-99.276;2022-07-15T04:58:39;5.22;;;4.82;;
13832;SDS011;6987;19.472;-99.276;2022-07-15T05:01:08;5.03;;;4.63;;
13832;SDS011;6987;19.472;-99.276;2022-07-15T05:03:39;8.30;;;4.72;;
13832;SDS011;6987;19.472;-99.276;2022-07-15T05:06:09;4.35;;;3.88;;
13832;SDS011;6987;19.472;-99.276;2022-07-15T05:08:38;5.90;;;3.83;;
13832;SDS011;6987;19.472;-99.276;2022-07-15T05:11:08;8.07;;;4.28;;
13832;SDS011;6987;19.472;-99.276;2022-07-15T05:13:37;3.58;;;3.28;;
13832;SDS011;6987;19.472;-99.276;2022-07-15T05:16:06;3.88;;;3.58;;
13832;SDS011;6987;19.472;-99.276;2022-07-15T05:18:36;3.30;;;3.00;;
13832;SDS011;6987;19.472;-99.276;2022-07-15T05:21:07;7.28;;;3.65;;
13832;SDS011;6987;19.472;-99.276;2022-07-15T05:23:37;2.78;;;2.55;;
13832;SDS011;6987;19.472;-99.276;2022-07-15T05:26:06;4.82;;;3.17;;
13832;SDS011;6987;19.472;-99.276;2022-07-15T05:28:37;4.60;;;3.50;;
13832;SDS011;6987;19.472;-99.276;2022-07-15T05:31:07;2.80;;;2.60;;
13832;SDS011;6987;19.472;-99.276;2022-07-15T05:33:37;3.08;;;2.88;;
13832;SDS011;6987;19.472;-99.276;2022-07-15T05:36:12;2.97;;;2.78;;
13832;SDS011;6987;19.472;-99.276;2022-07-15T05:38:42;3.50;;;3.20;;
13832;SDS011;6987;19.472;-99.276;2022-07-15T05:41:11;3.28;;;3.08;;
13832;SDS011;6987;19.472;-99.276;2022-07-15T05:43:40;3.20;;;2.88;;
13832;SDS011;6987;19.472;-99.276;2022-07-15T05:46:10;2.85;;;2.65;;
13832;SDS011;6987;19.472;-99.276;2022-07-15T05:48:40;2.83;;;2.72;;
13832;SDS011;6987;19.472;-99.276;2022-07-15T05:51:13;3.08;;;2.95;;
13832;SDS011;6987;19.472;-99.276;2022-07-15T05:53:42;3.10;;;3.00;;
13832;SDS011;6987;19.472;-99.276;2022-07-15T05:56:11;3.67;;;3.25;;
13832;SDS011;6987;19.472;-99.276;2022-07-15T05:58:41;2.85;;;2.65;;
13832;SDS011;6987;19.472;-99.276;2022-07-15T06:01:10;3.85;;;2.97;;
13832;SDS011;6987;19.472;-99.276;2022-07-15T06:03:39;2.70;;;2.50;;
13832;SDS011;6987;19.472;-99.276;2022-07-15T06:06:08;2.72;;;2.63;;
13832;SDS011;6987;19.472;-99.276;2022-07-15T06:08:40;3.97;;;2.72;;
13832;SDS011;6987;19.472;-99.276;2022-07-15T06:11:09;3.30;;;3.00;;
13832;SDS011;6987;19.472;-99.276;2022-07-15T06:13:39;4.10;;;3.15;;
13832;SDS011;6987;19.472;-99.276;2022-07-15T06:16:08;4.72;;;2.88;;
13832;SDS011;6987;19.472;-99.276;2022-07-15T06:18:37;3.70;;;3.40;;
13832;SDS011;6987;19.472;-99.276;2022-07-15T06:21:06;3.10;;;2.90;;
13832;SDS011;6987;19.472;-99.276;2022-07-15T06:23:37;4.20;;;3.42;;
13832;SDS011;6987;19.472;-99.276;2022-07-15T06:26:08;2.63;;;2.53;;
13832;SDS011;6987;19.472;-99.276;2022-07-15T06:28:37;3.35;;;2.95;;
13832;SDS011;6987;19.472;-99.276;2022-07-15T06:31:06;3.42;;;3.22;;
13832;SDS011;6987;19.472;-99.276;2022-07-15T06:33:35;3.65;;;3.00;;
13832;SDS011;6987;19.472;-99.276;2022-07-15T06:36:07;2.83;;;2.63;;
13832;SDS011;6987;19.472;-99.276;2022-07-15T06:38:36;4.40;;;3.15;;
13832;SDS011;6987;19.472;-99.276;2022-07-15T06:41:07;3.33;;;3.03;;
13832;SDS011;6987;19.472;-99.276;2022-07-15T06:43:36;2.80;;;2.60;;
13832;SDS011;6987;19.472;-99.276;2022-07-15T06:46:06;3.78;;;3.28;;
13832;SDS011;6987;19.472;-99.276;2022-07-15T06:48:35;2.97;;;2.78;;
13832;SDS011;6987;19.472;-99.276;2022-07-15T06:51:05;3.35;;;3.05;;
13832;SDS011;6987;19.472;-99.276;2022-07-15T06:53:34;3.03;;;2.80;;
13832;SDS011;6987;19.472;-99.276;2022-07-15T06:56:08;3.08;;;2.88;;
13832;SDS011;6987;19.472;-99.276;2022-07-15T06:58:37;4.03;;;3.08;;
13832;SDS011;6987;19.472;-99.276;2022-07-15T07:01:07;4.57;;;2.95;;
13832;SDS011;6987;19.472;-99.276;2022-07-15T07:03:36;5.40;;;3.05;;
13832;SDS011;6987;19.472;-99.276;2022-07-15T07:06:05;3.28;;;3.03;;
13832;SDS011;6987;19.472;-99.276;2022-07-15T07:08:35;3.30;;;3.05;;
13832;SDS011;6987;19.472;-99.276;2022-07-15T07:11:05;3.03;;;2.83;;
13832;SDS011;6987;19.472;-99.276;2022-07-15T07:13:36;3.15;;;2.90;;
13832;SDS011;6987;19.472;-99.276;2022-07-15T07:16:05;3.00;;;2.83;;
13832;SDS011;6987;19.472;-99.276;2022-07-15T07:18:35;3.10;;;2.78;;
13832;SDS011;6987;19.472;-99.276;2022-07-15T07:21:06;2.92;;;2.72;;
13832;SDS011;6987;19.472;-99.276;2022-07-15T07:23:35;3.40;;;3.08;;
13832;SDS011;6987;19.472;-99.276;2022-07-15T07:26:05;3.22;;;2.97;;
13832;SDS011;6987;19.472;-99.276;2022-07-15T07:28:37;3.22;;;2.90;;
13832;SDS011;6987;19.472;-99.276;2022-07-15T07:31:10;2.58;;;2.47;;
13832;SDS011;6987;19.472;-99.276;2022-07-15T07:33:41;2.90;;;2.65;;
13832;SDS011;6987;19.472;-99.276;2022-07-15T07:36:10;2.65;;;2.45;;
13832;SDS011;6987;19.472;-99.276;2022-07-15T07:38:40;3.55;;;3.25;;
13832;SDS011;6987;19.472;-99.276;2022-07-15T07:41:10;7.18;;;2.75;;
13832;SDS011;6987;19.472;-99.276;2022-07-15T07:43:41;6.97;;;3.00;;
13832;SDS011;6987;19.472;-99.276;2022-07-15T07:46:10;3.42;;;2.65;;
13832;SDS011;6987;19.472;-99.276;2022-07-15T07:48:39;3.20;;;3.00;;
13832;SDS011;6987;19.472;-99.276;2022-07-15T07:51:09;3.10;;;2.88;;
13832;SDS011;6987;19.472;-99.276;2022-07-15T07:53:38;4.20;;;3.10;;
13832;SDS011;6987;19.472;-99.276;2022-07-15T07:56:09;3.45;;;2.80;;
13832;SDS011;6987;19.472;-99.276;2022-07-15T07:58:38;3.28;;;3.05;;
13832;SDS011;6987;19.472;-99.276;2022-07-15T08:01:09;3.80;;;2.90;;
13832;SDS011;6987;19.472;-99.276;2022-07-15T08:03:38;3.83;;;2.63;;
13832;SDS011;6987;19.472;-99.276;2022-07-15T08:06:07;7.57;;;3.05;;
13832;SDS011;6987;19.472;-99.276;2022-07-15T08:08:36;3.03;;;2.83;;
13832;SDS011;6987;19.472;-99.276;2022-07-15T08:11:06;2.88;;;2.65;;
13832;SDS011;6987;19.472;-99.276;2022-07-15T08:13:35;3.28;;;2.97;;
13832;SDS011;6987;19.472;-99.276;2022-07-15T08:16:07;3.28;;;2.75;;
13832;SDS011;6987;19.472;-99.276;2022-07-15T08:18:36;3.42;;;3.13;;
13832;SDS011;6987;19.472;-99.276;2022-07-15T08:21:05;2.75;;;2.50;;
13832;SDS011;6987;19.472;-99.276;2022-07-15T08:23:34;2.95;;;2.85;;
13832;SDS011;6987;19.472;-99.276;2022-07-15T08:26:04;3.25;;;2.97;;
13832;SDS011;6987;19.472;-99.276;2022-07-15T08:28:34;4.43;;;2.88;;
13832;SDS011;6987;19.472;-99.276;2022-07-15T08:31:04;3.20;;;2.90;;
13832;SDS011;6987;19.472;-99.276;2022-07-15T08:33:35;4.60;;;3.05;;
13832;SDS011;6987;19.472;-99.276;2022-07-15T08:36:04;3.58;;;3.28;;
13832;SDS011;6987;19.472;-99.276;2022-07-15T08:38:34;2.97;;;2.78;;
13832;SDS011;6987;19.472;-99.276;2022-07-15T08:41:03;3.05;;;2.85;;
13832;SDS011;6987;19.472;-99.276;2022-07-15T08:43:32;3.42;;;3.10;;
13832;SDS011;6987;19.472;-99.276;2022-07-15T08:46:01;3.13;;;2.92;;
13832;SDS011;6987;19.472;-99.276;2022-07-15T08:48:37;3.05;;;2.85;;
13832;SDS011;6987;19.472;-99.276;2022-07-15T08:51:13;4.15;;;2.92;;
13832;SDS011;6987;19.472;-99.276;2022-07-15T08:53:43;5.13;;;2.80;;
13832;SDS011;6987;19.472;-99.276;2022-07-15T08:56:14;3.15;;;2.95;;
13832;SDS011;6987;19.472;-99.276;2022-07-15T08:58:46;3.17;;;2.97;;
13832;SDS011;6987;19.472;-99.276;2022-07-15T09:01:15;9.68;;;3.90;;
13832;SDS011;6987;19.472;-99.276;2022-07-15T09:03:46;3.00;;;2.70;;
13832;SDS011;6987;19.472;-99.276;2022-07-15T09:06:29;3.40;;;3.10;;
13832;SDS011;6987;19.472;-99.276;2022-07-15T09:09:03;3.47;;;3.00;;
13832;SDS011;6987;19.472;-99.276;2022-07-15T09:11:55;5.97;;;3.15;;
13832;SDS011;6987;19.472;-99.276;2022-07-15T09:14:26;3.60;;;3.20;;
13832;SDS011;6987;19.472;-99.276;2022-07-15T09:17:19;3.65;;;3.15;;
13832;SDS011;6987;19.472;-99.276;2022-07-15T09:20:02;2.78;;;2.58;;
13832;SDS011;6987;19.472;-99.276;2022-07-15T09:22:46;4.00;;;2.88;;
13832;SDS011;6987;19.472;-99.276;2022-07-15T09:25:17;4.60;;;2.97;;
13832;SDS011;6987;19.472;-99.276;2022-07-15T09:27:46;3.00;;;2.80;;
13832;SDS011;6987;19.472;-99.276;2022-07-15T09:30:17;3.28;;;2.97;;
13832;SDS011;6987;19.472;-99.276;2022-07-15T09:33:05;4.22;;;3.40;;
13832;SDS011;6987;19.472;-99.276;2022-07-15T09:35:54;3.60;;;3.30;;
13832;SDS011;6987;19.472;-99.276;2022-07-15T09:38:37;3.42;;;3.20;;
13832;SDS011;6987;19.472;-99.276;2022-07-15T09:41:13;6.63;;;3.13;;
13832;SDS011;6987;19.472;-99.276;2022-07-15T09:43:58;3.08;;;2.80;;
13832;SDS011;6987;19.472;-99.276;2022-07-15T09:46:29;3.63;;;3.22;;
13832;SDS011;6987;19.472;-99.276;2022-07-15T09:49:09;4.43;;;3.08;;
13832;SDS011;6987;19.472;-99.276;2022-07-15T09:51:48;6.25;;;2.53;;
13832;SDS011;6987;19.472;-99.276;2022-07-15T09:54:19;3.13;;;2.92;;
13832;SDS011;6987;19.472;-99.276;2022-07-15T09:56:49;8.13;;;3.67;;
13832;SDS011;6987;19.472;-99.276;2022-07-15T09:59:19;3.22;;;2.97;;
13832;SDS011;6987;19.472;-99.276;2022-07-15T10:01:48;3.15;;;2.95;;
13832;SDS011;6987;19.472;-99.276;2022-07-15T10:04:18;3.95;;;3.53;;
13832;SDS011;6987;19.472;-99.276;2022-07-15T10:06:50;3.13;;;2.83;;
13832;SDS011;6987;19.472;-99.276;2022-07-15T10:09:21;3.95;;;2.67;;
13832;SDS011;6987;19.472;-99.276;2022-07-15T10:11:52;2.70;;;2.60;;
13832;SDS011;6987;19.472;-99.276;2022-07-15T10:14:34;3.25;;;2.95;;
13832;SDS011;6987;19.472;-99.276;2022-07-15T10:20:41;3.42;;;2.50;;
13832;SDS011;6987;19.472;-99.276;2022-07-15T10:23:28;2.78;;;2.63;;
13832;SDS011;6987;19.472;-99.276;2022-07-15T10:26:12;6.28;;;3.10;;
13832;SDS011;6987;19.472;-99.276;2022-07-15T10:28:54;3.92;;;3.47;;
13832;SDS011;6987;19.472;-99.276;2022-07-15T10:31:26;3.42;;;3.10;;
13832;SDS011;6987;19.472;-99.276;2022-07-15T10:34:15;3.03;;;2.83;;
13832;SDS011;6987;19.472;-99.276;2022-07-15T10:36:59;3.20;;;2.97;;
13832;SDS011;6987;19.472;-99.276;2022-07-15T10:42:24;3.55;;;3.17;;
13832;SDS011;6987;19.472;-99.276;2022-07-15T10:45:04;4.22;;;3.92;;
13832;SDS011;6987;19.472;-99.276;2022-07-15T10:47:37;5.40;;;3.25;;
13832;SDS011;6987;19.472;-99.276;2022-07-15T10:53:16;3.88;;;3.40;;
13832;SDS011;6987;19.472;-99.276;2022-07-15T10:55:51;3.70;;;3.38;;
13832;SDS011;6987;19.472;-99.276;2022-07-15T10:58:21;3.70;;;3.40;;
13832;SDS011;6987;19.472;-99.276;2022-07-15T11:00:53;4.30;;;3.58;;
13832;SDS011;6987;19.472;-99.276;2022-07-15T11:03:23;4.15;;;3.75;;
13832;SDS011;6987;19.472;-99.276;2022-07-15T11:06:03;6.50;;;4.03;;
13832;SDS011;6987;19.472;-99.276;2022-07-15T11:08:49;3.67;;;3.38;;
13832;SDS011;6987;19.472;-99.276;2022-07-15T11:17:21;3.65;;;3.38;;
13832;SDS011;6987;19.472;-99.276;2022-07-15T11:19:54;4.50;;;4.20;;
13832;SDS011;6987;19.472;-99.276;2022-07-15T11:22:24;3.95;;;3.65;;
13832;SDS011;6987;19.472;-99.276;2022-07-15T11:24:55;6.35;;;4.07;;
13832;SDS011;6987;19.472;-99.276;2022-07-15T11:27:26;4.40;;;3.72;;
13832;SDS011;6987;19.472;-99.276;2022-07-15T11:29:56;4.20;;;3.90;;
13832;SDS011;6987;19.472;-99.276;2022-07-15T11:32:28;5.05;;;3.92;;
13832;SDS011;6987;19.472;-99.276;2022-07-15T11:35:00;4.80;;;4.40;;
13832;SDS011;6987;19.472;-99.276;2022-07-15T11:37:31;4.60;;;3.95;;
13832;SDS011;6987;19.472;-99.276;2022-07-15T11:40:08;4.45;;;4.03;;
13832;SDS011;6987;19.472;-99.276;2022-07-15T11:43:00;4.15;;;3.85;;
13832;SDS011;6987;19.472;-99.276;2022-07-15T11:45:47;3.92;;;3.50;;
13832;SDS011;6987;19.472;-99.276;2022-07-15T11:48:17;4.43;;;4.05;;
13832;SDS011;6987;19.472;-99.276;2022-07-15T11:50:50;4.47;;;4.10;;
13832;SDS011;6987;19.472;-99.276;2022-07-15T11:53:20;4.22;;;3.92;;
13832;SDS011;6987;19.472;-99.276;2022-07-15T11:55:51;4.35;;;4.05;;
13832;SDS011;6987;19.472;-99.276;2022-07-15T11:58:30;4.85;;;4.55;;
13832;SDS011;6987;19.472;-99.276;2022-07-15T12:01:02;7.28;;;4.78;;
13832;SDS011;6987;19.472;-99.276;2022-07-15T12:03:34;5.10;;;4.68;;
13832;SDS011;6987;19.472;-99.276;2022-07-15T12:06:07;5.82;;;5.32;;
13832;SDS011;6987;19.472;-99.276;2022-07-15T12:08:39;5.90;;;5.40;;
13832;SDS011;6987;19.472;-99.276;2022-07-15T12:11:13;6.30;;;5.68;;
13832;SDS011;6987;19.472;-99.276;2022-07-15T12:13:51;6.25;;;5.65;;
13832;SDS011;6987;19.472;-99.276;2022-07-15T12:16:23;5.57;;;4.82;;
13832;SDS011;6987;19.472;-99.276;2022-07-15T12:18:55;5.30;;;4.85;;
13832;SDS011;6987;19.472;-99.276;2022-07-15T12:21:26;5.25;;;4.75;;
13832;SDS011;6987;19.472;-99.276;2022-07-15T12:23:59;10.32;;;5.28;;
13832;SDS011;6987;19.472;-99.276;2022-07-15T12:26:30;5.53;;;4.65;;
13832;SDS011;6987;19.472;-99.276;2022-07-15T12:29:02;7.00;;;4.95;;
13832;SDS011;6987;19.472;-99.276;2022-07-15T12:31:35;8.50;;;4.68;;
13832;SDS011;6987;19.472;-99.276;2022-07-15T12:34:05;9.65;;;4.85;;
13832;SDS011;6987;19.472;-99.276;2022-07-15T12:36:35;5.63;;;5.15;;
13832;SDS011;6987;19.472;-99.276;2022-07-15T12:39:13;6.32;;;5.78;;
13832;SDS011;6987;19.472;-99.276;2022-07-15T12:41:44;6.90;;;6.18;;
13832;SDS011;6987;19.472;-99.276;2022-07-15T12:44:26;6.47;;;5.97;;
13832;SDS011;6987;19.472;-99.276;2022-07-15T12:46:56;6.68;;;5.90;;
13832;SDS011;6987;19.472;-99.276;2022-07-15T12:49:46;6.75;;;6.05;;
13832;SDS011;6987;19.472;-99.276;2022-07-15T12:52:18;6.82;;;6.07;;
13832;SDS011;6987;19.472;-99.276;2022-07-15T12:54:58;6.50;;;5.90;;
13832;SDS011;6987;19.472;-99.276;2022-07-15T12:57:38;5.55;;;5.05;;
13832;SDS011;6987;19.472;-99.276;2022-07-15T13:00:12;9.05;;;6.68;;
13832;SDS011;6987;19.472;-99.276;2022-07-15T13:02:54;11.27;;;8.32;;
13832;SDS011;6987;19.472;-99.276;2022-07-15T13:05:35;11.55;;;7.68;;
13832;SDS011;6987;19.472;-99.276;2022-07-15T13:08:05;10.43;;;7.72;;
13832;SDS011;6987;19.472;-99.276;2022-07-15T13:10:36;9.70;;;8.70;;
13832;SDS011;6987;19.472;-99.276;2022-07-15T13:13:06;11.43;;;9.00;;
13832;SDS011;6987;19.472;-99.276;2022-07-15T13:15:38;9.88;;;8.60;;
13832;SDS011;6987;19.472;-99.276;2022-07-15T13:18:07;9.32;;;8.43;;
13832;SDS011;6987;19.472;-99.276;2022-07-15T13:20:37;10.00;;;9.00;;
13832;SDS011;6987;19.472;-99.276;2022-07-15T13:23:08;9.13;;;8.20;;
13832;SDS011;6987;19.472;-99.276;2022-07-15T13:25:38;17.38;;;9.93;;
13832;SDS011;6987;19.472;-99.276;2022-07-15T13:28:08;10.32;;;8.25;;
13832;SDS011;6987;19.472;-99.276;2022-07-15T13:30:41;11.70;;;10.50;;
13832;SDS011;6987;19.472;-99.276;2022-07-15T13:33:11;10.73;;;9.30;;
13832;SDS011;6987;19.472;-99.276;2022-07-15T13:35:40;15.55;;;9.75;;
13832;SDS011;6987;19.472;-99.276;2022-07-15T13:38:09;10.75;;;9.00;;
13832;SDS011;6987;19.472;-99.276;2022-07-15T13:40:40;9.98;;;8.77;;
13832;SDS011;6987;19.472;-99.276;2022-07-15T13:43:09;14.55;;;8.57;;
13832;SDS011;6987;19.472;-99.276;2022-07-15T13:45:41;11.30;;;8.85;;
13832;SDS011;6987;19.472;-99.276;2022-07-15T13:48:10;20.83;;;9.38;;
13832;SDS011;6987;19.472;-99.276;2022-07-15T13:50:39;9.88;;;8.88;;
13832;SDS011;6987;19.472;-99.276;2022-07-15T13:53:25;11.63;;;9.30;;
13832;SDS011;6987;19.472;-99.276;2022-07-15T13:55:54;11.65;;;10.45;;
13832;SDS011;6987;19.472;-99.276;2022-07-15T13:58:23;12.73;;;10.68;;
13832;SDS011;6987;19.472;-99.276;2022-07-15T14:00:55;14.57;;;11.40;;
13832;SDS011;6987;19.472;-99.276;2022-07-15T14:03:24;22.80;;;17.15;;
13832;SDS011;6987;19.472;-99.276;2022-07-15T14:05:54;24.90;;;17.83;;
13832;SDS011;6987;19.472;-99.276;2022-07-15T14:08:23;18.77;;;14.15;;
13832;SDS011;6987;19.472;-99.276;2022-07-15T14:10:52;17.55;;;15.50;;
13832;SDS011;6987;19.472;-99.276;2022-07-15T14:13:22;16.52;;;14.82;;
13832;SDS011;6987;19.472;-99.276;2022-07-15T14:15:51;17.15;;;14.70;;
13832;SDS011;6987;19.472;-99.276;2022-07-15T14:18:22;22.50;;;18.17;;
13832;SDS011;6987;19.472;-99.276;2022-07-15T14:21:04;22.58;;;19.25;;
13832;SDS011;6987;19.472;-99.276;2022-07-15T14:23:34;23.95;;;17.83;;
13832;SDS011;6987;19.472;-99.276;2022-07-15T14:26:03;21.52;;;17.23;;
13832;SDS011;6987;19.472;-99.276;2022-07-15T14:28:35;17.90;;;16.05;;
13832;SDS011;6987;19.472;-99.276;2022-07-15T14:31:05;22.23;;;19.05;;
13832;SDS011;6987;19.472;-99.276;2022-07-15T14:33:36;25.33;;;20.33;;
13832;SDS011;6987;19.472;-99.276;2022-07-15T14:36:06;23.00;;;19.20;;
13832;SDS011;6987;19.472;-99.276;2022-07-15T14:38:35;21.38;;;19.08;;
13832;SDS011;6987;19.472;-99.276;2022-07-15T14:41:05;24.92;;;20.13;;
13832;SDS011;6987;19.472;-99.276;2022-07-15T14:43:34;20.77;;;18.67;;
13832;SDS011;6987;19.472;-99.276;2022-07-15T14:46:03;22.45;;;18.98;;
13832;SDS011;6987;19.472;-99.276;2022-07-15T14:48:33;23.52;;;19.65;;
13832;SDS011;6987;19.472;-99.276;2022-07-15T14:51:04;24.70;;;19.02;;
13832;SDS011;6987;19.472;-99.276;2022-07-15T14:53:36;28.70;;;20.30;;
13832;SDS011;6987;19.472;-99.276;2022-07-15T14:56:05;24.83;;;21.00;;
13832;SDS011;6987;19.472;-99.276;2022-07-15T14:58:35;22.92;;;20.52;;
13832;SDS011;6987;19.472;-99.276;2022-07-15T15:01:04;20.60;;;18.45;;
13832;SDS011;6987;19.472;-99.276;2022-07-15T15:03:33;30.83;;;19.58;;
13832;SDS011;6987;19.472;-99.276;2022-07-15T15:06:04;21.70;;;17.65;;
13832;SDS011;6987;19.472;-99.276;2022-07-15T15:08:34;24.75;;;21.70;;
13832;SDS011;6987;19.472;-99.276;2022-07-15T15:11:03;25.50;;;21.38;;